createdAt,value
2023-10-12T00:02:15.967Z,10.85
2023-10-12T00:04:44.086Z,8.23
2023-10-12T00:07:15.747Z,10.40
2023-10-12T00:09:48.513Z,12.70
2023-10-12T00:12:15.608Z,7.50
2023-10-12T00:14:42.353Z,10.00
2023-10-12T00:17:09.148Z,7.50
2023-10-12T00:19:38.617Z,8.07
2023-10-12T00:22:12.179Z,10.27
2023-10-12T00:24:39.580Z,8.02
2023-10-12T00:27:09.722Z,7.95
2023-10-12T00:29:39.609Z,11.38
2023-10-12T00:32:07.335Z,8.23
2023-10-12T00:34:35.622Z,10.90
2023-10-12T00:37:03.627Z,8.38
2023-10-12T00:39:44.980Z,12.98
2023-10-12T00:42:17.633Z,9.68
2023-10-12T00:44:47.407Z,9.38
2023-10-12T00:47:20.380Z,10.27
2023-10-12T00:49:49.559Z,11.60
2023-10-12T00:52:27.550Z,8.52
2023-10-12T00:55:13.721Z,10.30
2023-10-12T00:57:42.793Z,11.82
2023-10-12T01:00:15.986Z,10.68
2023-10-12T01:02:43.416Z,8.32
2023-10-12T01:05:11.578Z,8.27
2023-10-12T01:07:38.789Z,10.52
2023-10-12T01:10:07.331Z,11.98
2023-10-12T01:12:34.815Z,11.50
2023-10-12T01:15:11.425Z,11.02
2023-10-12T01:17:40.758Z,9.98
2023-10-12T01:20:16.662Z,11.82
2023-10-12T01:22:44.614Z,9.13
2023-10-12T01:25:19.994Z,8.23
2023-10-12T01:27:47.357Z,10.23
2023-10-12T01:30:19.359Z,8.93
2023-10-12T01:32:52.259Z,11.25
2023-10-12T01:35:26.199Z,10.95
2023-10-12T01:38:00.695Z,9.57
2023-10-12T01:40:28.982Z,9.88
2023-10-12T01:42:57.126Z,9.63
2023-10-12T01:45:41.163Z,8.73
2023-10-12T01:48:11.981Z,12.77
2023-10-12T01:50:39.401Z,14.45
2023-10-12T01:53:21.955Z,9.00
2023-10-12T01:55:48.859Z,14.05
2023-10-12T01:58:15.812Z,10.68
2023-10-12T02:00:43.196Z,11.02
2023-10-12T02:03:18.620Z,9.40
2023-10-12T02:05:51.296Z,10.73
2023-10-12T02:08:20.838Z,7.68
2023-10-12T02:10:56.156Z,9.25
2023-10-12T02:13:22.938Z,8.50
2023-10-12T02:15:51.012Z,10.52
2023-10-12T02:18:18.666Z,9.18
2023-10-12T02:21:07.296Z,10.13
2023-10-12T02:23:39.199Z,8.25
2023-10-12T02:26:31.864Z,13.68
2023-10-12T02:29:12.257Z,8.25
2023-10-12T02:31:50.172Z,8.80
2023-10-12T02:34:26.288Z,11.05
2023-10-12T02:37:17.026Z,8.23
2023-10-12T02:39:47.099Z,9.25
2023-10-12T02:42:22.119Z,12.95
2023-10-12T02:45:08.621Z,10.65
2023-10-12T02:47:42.428Z,14.43
2023-10-12T02:50:27.861Z,12.15
2023-10-12T02:52:54.802Z,6.75
2023-10-12T02:55:35.033Z,7.43
2023-10-12T02:58:07.411Z,7.07
2023-10-12T03:00:35.737Z,9.23
2023-10-12T03:03:12.685Z,12.00
2023-10-12T03:05:47.189Z,10.15
2023-10-12T03:08:15.029Z,9.70
2023-10-12T03:11:00.979Z,13.65
2023-10-12T03:13:34.625Z,8.13
2023-10-12T03:16:09.716Z,9.32
2023-10-12T03:18:36.789Z,10.93
2023-10-12T03:21:05.304Z,12.35
2023-10-12T03:23:34.161Z,11.68
2023-10-12T03:26:06.358Z,10.82
2023-10-12T03:28:44.595Z,8.30
2023-10-12T03:31:23.371Z,9.52
2023-10-12T03:33:55.784Z,9.98
2023-10-12T03:36:24.157Z,11.77
2023-10-12T03:39:19.163Z,10.40
2023-10-12T03:41:47.315Z,8.25
2023-10-12T03:44:20.356Z,11.80
2023-10-12T03:46:57.707Z,10.07
2023-10-12T03:49:32.458Z,7.00
2023-10-12T03:52:00.814Z,10.82
2023-10-12T03:54:29.449Z,10.25
2023-10-12T03:57:07.465Z,8.85
2023-10-12T03:59:44.640Z,10.43
2023-10-12T04:02:15.176Z,8.50
2023-10-12T04:04:52.617Z,9.45
2023-10-12T04:07:20.364Z,17.95
2023-10-12T04:09:52.140Z,12.60
2023-10-12T04:12:32.625Z,7.20
2023-10-12T04:15:05.919Z,9.60
2023-10-12T04:17:42.581Z,9.80
2023-10-12T04:20:20.407Z,9.38
2023-10-12T04:23:34.625Z,10.68
2023-10-12T04:26:10.269Z,11.50
2023-10-12T04:28:37.702Z,9.23
2023-10-12T04:31:34.232Z,8.00
2023-10-12T04:34:06.964Z,11.25
2023-10-12T04:36:45.037Z,11.68
2023-10-12T04:39:17.238Z,12.57
2023-10-12T04:41:56.557Z,13.27
2023-10-12T04:44:40.321Z,9.98
2023-10-12T04:47:12.547Z,10.38
2023-10-12T04:49:57.664Z,8.63
2023-10-12T04:52:34.380Z,7.90
2023-10-12T04:55:20.996Z,12.43
2023-10-12T04:57:50.294Z,9.32
2023-10-12T05:00:24.564Z,11.07
2023-10-12T05:02:57.552Z,10.10
2023-10-12T05:05:43.460Z,9.05
2023-10-12T05:08:10.215Z,10.48
2023-10-12T05:10:46.966Z,7.82
2023-10-12T05:13:22.586Z,10.63
2023-10-12T05:15:55.600Z,7.82
2023-10-12T05:18:24.232Z,11.93
2023-10-12T05:20:52.097Z,13.18
2023-10-12T05:23:23.102Z,9.45
2023-10-12T05:26:08.223Z,9.68
2023-10-12T05:28:38.089Z,11.48
2023-10-12T05:31:13.690Z,11.35
2023-10-12T05:34:02.007Z,11.18
2023-10-12T05:36:31.582Z,8.95
2023-10-12T05:39:13.680Z,11.23
2023-10-12T05:41:41.444Z,7.78
2023-10-12T05:44:16.028Z,11.65
2023-10-12T05:46:51.331Z,16.30
2023-10-12T05:49:23.454Z,9.30
2023-10-12T05:51:50.173Z,10.23
2023-10-12T05:54:21.149Z,9.43
2023-10-12T05:56:49.981Z,10.52
2023-10-12T05:59:18.557Z,7.78
2023-10-12T06:01:46.720Z,9.45
2023-10-12T06:04:15.723Z,6.55
2023-10-12T06:06:43.631Z,6.60
2023-10-12T06:09:12.820Z,7.45
2023-10-12T06:11:44.259Z,9.57
2023-10-12T06:14:14.563Z,8.65
2023-10-12T06:16:41.898Z,11.25
2023-10-12T06:19:22.482Z,12.18
2023-10-12T06:21:59.277Z,13.45
2023-10-12T06:24:33.776Z,15.57
2023-10-12T06:27:09.875Z,12.52
2023-10-12T06:29:37.269Z,9.95
2023-10-12T06:32:10.884Z,9.32
2023-10-12T06:34:38.510Z,8.40
2023-10-12T06:37:25.294Z,10.85
2023-10-12T06:40:37.537Z,11.80
2023-10-12T06:43:23.000Z,10.15
2023-10-12T06:45:51.805Z,11.23
2023-10-12T06:48:24.359Z,8.18
2023-10-12T06:51:02.423Z,10.52
2023-10-12T06:53:34.312Z,10.57
2023-10-12T06:56:16.491Z,12.80
2023-10-12T06:58:43.710Z,9.32
2023-10-12T07:01:19.169Z,9.63
2023-10-12T07:03:48.657Z,6.97
2023-10-12T07:06:16.516Z,8.70
2023-10-12T07:08:47.006Z,9.50
2023-10-12T07:11:14.805Z,9.45
2023-10-12T07:13:41.878Z,7.88
2023-10-12T07:16:08.780Z,8.45
2023-10-12T07:18:35.786Z,13.55
2023-10-12T07:21:06.727Z,11.05
2023-10-12T07:23:36.211Z,15.95
2023-10-12T07:26:10.541Z,9.63
2023-10-12T07:28:40.229Z,8.32
2023-10-12T07:31:31.449Z,12.15
2023-10-12T07:34:01.828Z,8.93
2023-10-12T07:36:53.407Z,12.05
2023-10-12T07:39:21.473Z,12.43
2023-10-12T07:41:56.649Z,11.48
2023-10-12T07:44:24.729Z,9.57
2023-10-12T07:46:56.851Z,9.00
2023-10-12T07:49:37.508Z,10.07
2023-10-12T07:52:22.510Z,17.23
2023-10-12T07:54:57.933Z,15.30
2023-10-12T07:57:30.021Z,12.05
2023-10-12T08:00:16.429Z,8.38
2023-10-12T08:03:01.546Z,11.13
2023-10-12T08:05:42.840Z,9.52
2023-10-12T08:08:18.178Z,13.15
2023-10-12T08:10:59.231Z,11.00
2023-10-12T08:13:27.317Z,9.02
2023-10-12T08:15:59.662Z,9.50
2023-10-12T08:18:46.926Z,10.68
2023-10-12T08:21:24.242Z,10.38
2023-10-12T08:23:57.554Z,8.05
2023-10-12T08:26:35.952Z,10.40
2023-10-12T08:29:09.582Z,10.18
2023-10-12T08:31:44.210Z,8.80
2023-10-12T08:34:34.778Z,10.38
2023-10-12T08:37:18.323Z,10.10
2023-10-12T08:39:50.804Z,9.68
2023-10-12T08:42:39.928Z,9.75
2023-10-12T08:45:09.453Z,8.65
2023-10-12T08:47:45.226Z,10.60
2023-10-12T08:50:26.847Z,11.25
2023-10-12T08:52:59.972Z,12.32
2023-10-12T08:55:32.040Z,13.95
2023-10-12T08:58:16.046Z,10.15
2023-10-12T09:00:45.564Z,10.15
2023-10-12T09:03:29.960Z,9.98
2023-10-12T09:06:08.190Z,10.98
2023-10-12T09:08:41.859Z,9.70
2023-10-12T09:11:26.419Z,11.80
2023-10-12T09:13:57.903Z,12.38
2023-10-12T09:16:45.270Z,10.07
2023-10-12T09:19:30.559Z,14.77
2023-10-12T09:24:55.225Z,8.73
2023-10-12T09:27:28.775Z,16.38
2023-10-12T09:29:57.894Z,9.43
2023-10-12T09:32:26.529Z,13.43
2023-10-12T09:35:11.631Z,11.15
2023-10-12T09:37:44.650Z,10.48
2023-10-12T09:40:25.016Z,9.90
2023-10-12T09:42:56.079Z,13.35
2023-10-12T09:45:35.462Z,11.15
2023-10-12T09:48:07.380Z,9.30
2023-10-12T09:50:36.106Z,11.45
2023-10-12T09:53:13.232Z,8.90
2023-10-12T09:55:46.023Z,9.02
2023-10-12T09:58:15.501Z,9.35
2023-10-12T10:00:57.381Z,9.38
2023-10-12T10:03:39.253Z,9.77
2023-10-12T10:06:29.034Z,9.68
2023-10-12T10:09:10.692Z,13.48
2023-10-12T10:11:38.758Z,12.10
2023-10-12T10:14:09.984Z,13.27
2023-10-12T10:16:47.268Z,12.25
2023-10-12T10:19:15.281Z,11.90
2023-10-12T10:21:50.604Z,9.38
2023-10-12T10:24:20.457Z,7.72
2023-10-12T10:26:58.509Z,12.35
2023-10-12T10:29:42.233Z,10.65
2023-10-12T10:32:14.843Z,9.40
2023-10-12T10:34:43.331Z,10.45
2023-10-12T10:37:12.217Z,8.75
2023-10-12T10:39:46.272Z,9.50
2023-10-12T10:42:19.215Z,11.48
2023-10-12T10:47:30.309Z,12.55
2023-10-12T10:50:00.754Z,12.50
2023-10-12T10:52:33.166Z,11.00
2023-10-12T10:55:00.853Z,11.50
2023-10-12T10:57:38.296Z,13.52
2023-10-12T11:00:12.263Z,14.32
2023-10-12T11:02:41.121Z,14.43
2023-10-12T11:05:18.707Z,13.38
2023-10-12T11:10:34.348Z,14.63
2023-10-12T11:13:04.527Z,13.07
2023-10-12T11:15:31.234Z,11.88
2023-10-12T11:18:08.003Z,10.95
2023-10-12T11:20:46.287Z,17.63
2023-10-12T11:23:15.288Z,12.88
2023-10-12T11:25:42.163Z,13.90
2023-10-12T11:28:19.973Z,12.43
2023-10-12T11:30:47.038Z,12.25
2023-10-12T11:33:34.442Z,20.58
2023-10-12T11:36:04.020Z,11.88
2023-10-12T11:38:31.391Z,14.52
2023-10-12T11:43:53.839Z,14.95
2023-10-12T11:46:25.948Z,10.13
2023-10-12T11:49:16.531Z,14.20
2023-10-12T11:51:51.121Z,14.80
2023-10-12T11:54:23.274Z,13.00
2023-10-12T11:56:57.951Z,10.82
2023-10-12T11:59:31.638Z,14.60
2023-10-12T12:02:07.434Z,15.40
2023-10-12T12:07:11.439Z,15.10
2023-10-12T12:09:48.868Z,12.00
2023-10-12T12:12:21.311Z,11.50
2023-10-12T12:14:49.169Z,10.05
2023-10-12T12:17:20.292Z,7.68
2023-10-12T12:20:27.023Z,10.82
2023-10-12T12:23:04.577Z,11.32
2023-10-12T12:25:34.404Z,9.30
2023-10-12T12:28:14.666Z,8.48
2023-10-12T12:30:59.041Z,9.57
2023-10-12T12:33:26.981Z,10.38
2023-10-12T12:38:54.086Z,9.68
2023-10-12T12:41:28.944Z,9.00
2023-10-12T12:43:59.314Z,13.15
2023-10-12T12:46:26.431Z,8.18
2023-10-12T12:49:01.610Z,8.77
2023-10-12T12:51:31.587Z,14.35
2023-10-12T12:53:59.348Z,9.02
2023-10-12T12:56:26.319Z,8.18
2023-10-12T12:58:54.983Z,13.43
2023-10-12T13:04:03.938Z,11.18
2023-10-12T13:06:33.955Z,13.88
2023-10-12T13:09:06.401Z,12.05
2023-10-12T13:11:35.468Z,11.05
2023-10-12T13:14:03.479Z,13.80
2023-10-12T13:16:54.101Z,10.95
2023-10-12T13:19:27.709Z,13.60
2023-10-12T13:22:04.467Z,12.43
2023-10-12T13:24:35.953Z,14.68
2023-10-12T13:27:11.677Z,12.45
2023-10-12T13:29:58.070Z,11.32
2023-10-12T13:32:27.099Z,14.48
2023-10-12T13:34:58.432Z,9.57
2023-10-12T13:40:15.715Z,10.35
2023-10-12T13:42:46.011Z,9.32
2023-10-12T13:45:19.143Z,11.32
2023-10-12T13:47:47.342Z,9.73
2023-10-12T13:50:15.039Z,12.52
2023-10-12T13:52:59.818Z,14.50
2023-10-12T13:55:27.255Z,8.93
2023-10-12T13:57:58.057Z,11.63
2023-10-12T14:00:29.785Z,14.00
2023-10-12T14:03:11.108Z,13.80
2023-10-12T14:05:44.532Z,14.80
2023-10-12T14:08:12.701Z,18.52
2023-10-12T14:10:52.148Z,19.27
2023-10-12T14:13:23.810Z,16.58
2023-10-12T14:15:51.839Z,15.85
2023-10-12T14:18:22.567Z,16.13
2023-10-12T14:20:55.826Z,15.68
2023-10-12T14:23:26.938Z,14.15
2023-10-12T14:25:57.607Z,13.98
2023-10-12T14:28:31.814Z,14.77
2023-10-12T14:33:53.384Z,14.10
2023-10-12T14:36:20.531Z,15.15
2023-10-12T14:38:55.142Z,14.00
2023-10-12T14:41:31.370Z,19.50
2023-10-12T14:44:00.163Z,14.10
2023-10-12T14:46:33.040Z,13.88
2023-10-12T14:49:10.431Z,17.10
2023-10-12T14:51:38.422Z,14.13
2023-10-12T14:54:13.360Z,12.45
2023-10-12T14:56:43.592Z,18.27
2023-10-12T14:59:23.930Z,15.15
2023-10-12T15:02:03.585Z,13.60
2023-10-12T15:04:33.163Z,8.13
2023-10-12T15:09:58.264Z,7.05
2023-10-12T15:12:29.137Z,10.85
2023-10-12T15:14:56.419Z,6.82
2023-10-12T15:17:23.103Z,9.65
2023-10-12T15:19:49.767Z,6.70
2023-10-12T15:22:19.468Z,13.38
2023-10-12T15:24:50.627Z,11.15
2023-10-12T15:27:22.620Z,7.60
2023-10-12T15:29:54.182Z,8.25
2023-10-12T15:32:24.565Z,7.75
2023-10-12T15:34:57.253Z,9.18
2023-10-12T15:37:25.264Z,7.22
2023-10-12T15:40:03.445Z,10.82
2023-10-12T15:42:55.673Z,6.47
2023-10-12T15:45:24.714Z,7.90
2023-10-12T15:48:05.143Z,9.40
2023-10-12T15:50:32.209Z,6.82
2023-10-12T15:53:07.336Z,5.88
2023-10-12T15:55:35.511Z,6.95
2023-10-12T15:58:12.078Z,7.43
2023-10-12T16:00:41.464Z,6.97
2023-10-12T16:03:08.738Z,4.40
2023-10-12T16:05:36.851Z,5.28
2023-10-12T16:08:12.504Z,5.03
2023-10-12T16:10:41.910Z,5.00
2023-10-12T16:13:11.992Z,5.57
2023-10-12T16:15:39.625Z,6.50
2023-10-12T16:18:16.608Z,6.30
2023-10-12T16:20:44.795Z,5.60
2023-10-12T16:23:12.691Z,4.75
2023-10-12T16:25:41.927Z,5.72
2023-10-12T16:28:16.702Z,5.82
2023-10-12T16:30:56.998Z,5.95
2023-10-12T16:33:35.599Z,5.97
2023-10-12T16:36:06.776Z,5.25
2023-10-12T16:38:33.710Z,7.57
2023-10-12T16:41:01.348Z,5.82
2023-10-12T16:43:31.728Z,6.30
2023-10-12T16:45:58.624Z,7.65
2023-10-12T16:48:29.098Z,6.25
2023-10-12T16:50:56.119Z,5.97
2023-10-12T16:53:23.067Z,5.70
2023-10-12T16:55:49.806Z,6.47
2023-10-12T16:58:18.198Z,5.40
2023-10-12T17:00:45.618Z,5.15
2023-10-12T17:03:12.446Z,6.78
2023-10-12T17:05:39.233Z,6.55
2023-10-12T17:08:07.328Z,7.97
2023-10-12T17:10:35.011Z,7.72
2023-10-12T17:13:02.030Z,6.28
2023-10-12T17:15:28.926Z,8.27
2023-10-12T17:17:57.304Z,6.35
2023-10-12T17:20:24.451Z,10.27
2023-10-12T17:22:52.403Z,7.40
2023-10-12T17:25:19.416Z,9.25
2023-10-12T17:27:46.546Z,10.88
2023-10-12T17:30:13.743Z,10.15
2023-10-12T17:32:41.215Z,10.07
2023-10-12T17:35:12.524Z,8.40
2023-10-12T17:37:39.997Z,9.50
2023-10-12T17:40:08.503Z,11.13
2023-10-12T17:42:35.294Z,10.80
2023-10-12T17:45:09.506Z,11.68
2023-10-12T17:47:38.811Z,10.38
2023-10-12T17:50:13.050Z,13.93
2023-10-12T17:52:41.902Z,13.98
2023-10-12T17:55:09.834Z,14.45
2023-10-12T17:57:37.149Z,17.10
2023-10-12T18:00:08.909Z,14.85
2023-10-12T18:02:38.575Z,15.93
2023-10-12T18:05:09.370Z,14.25
2023-10-12T18:07:37.267Z,13.10
2023-10-12T18:10:05.789Z,11.48
2023-10-12T18:12:33.779Z,22.00
2023-10-12T18:15:01.703Z,15.65
2023-10-12T18:17:28.561Z,19.13
2023-10-12T18:19:55.361Z,18.38
2023-10-12T18:22:22.205Z,18.88
2023-10-12T18:24:53.875Z,18.02
2023-10-12T18:27:26.242Z,16.15
2023-10-12T18:29:52.966Z,20.02
2023-10-12T18:32:23.455Z,15.30
2023-10-12T18:34:55.542Z,14.48
2023-10-12T18:37:22.279Z,13.65
2023-10-12T18:39:49.003Z,18.23
2023-10-12T18:42:15.819Z,15.55
2023-10-12T18:44:45.292Z,18.85
2023-10-12T18:47:17.036Z,15.75
2023-10-12T18:49:59.341Z,14.60
2023-10-12T18:52:34.216Z,10.70
2023-10-12T18:55:01.001Z,13.65
2023-10-12T18:57:27.748Z,12.05
2023-10-12T18:59:55.275Z,12.73
2023-10-12T19:02:22.145Z,13.60
2023-10-12T19:04:50.313Z,12.93
2023-10-12T19:07:17.595Z,10.68
2023-10-12T19:09:44.311Z,10.30
2023-10-12T19:12:11.048Z,12.60
2023-10-12T19:14:37.742Z,11.30
2023-10-12T19:17:05.463Z,13.52
2023-10-12T19:19:32.283Z,14.18
2023-10-12T19:21:59.090Z,12.48
2023-10-12T19:24:28.928Z,13.15
2023-10-12T19:26:59.103Z,14.57
2023-10-12T19:29:32.462Z,13.02
2023-10-12T19:31:59.284Z,15.57
2023-10-12T19:34:29.851Z,15.77
2023-10-12T19:36:57.264Z,18.27
2023-10-12T19:39:23.994Z,19.23
2023-10-12T19:41:52.217Z,19.92
2023-10-12T19:44:20.507Z,20.52
2023-10-12T19:46:47.317Z,24.50
2023-10-12T19:49:14.157Z,24.08
2023-10-12T19:51:41.541Z,23.80
2023-10-12T19:54:33.363Z,21.45
2023-10-12T19:57:07.081Z,21.60
2023-10-12T19:59:39.785Z,23.48
2023-10-12T20:02:26.826Z,23.08
2023-10-12T20:05:02.199Z,26.58
2023-10-12T20:07:29.667Z,18.60
2023-10-12T20:09:56.488Z,19.42
2023-10-12T20:12:26.840Z,18.08
2023-10-12T20:14:53.981Z,20.20
2023-10-12T20:17:20.884Z,22.30
2023-10-12T20:19:49.099Z,22.02
2023-10-12T20:22:15.848Z,23.50
2023-10-12T20:24:43.427Z,20.58
2023-10-12T20:27:10.219Z,22.52
2023-10-12T20:29:39.844Z,20.55
2023-10-12T20:32:06.555Z,20.42
2023-10-12T20:34:35.235Z,19.65
2023-10-12T20:37:02.246Z,24.55
2023-10-12T20:39:29.002Z,21.73
2023-10-12T20:41:56.345Z,22.40
2023-10-12T20:44:23.092Z,24.90
2023-10-12T20:46:49.906Z,22.38
2023-10-12T20:49:21.082Z,20.92
2023-10-12T20:51:49.887Z,20.10
2023-10-12T20:54:16.839Z,22.25
2023-10-12T20:56:43.582Z,22.08
2023-10-12T20:59:17.277Z,20.85
2023-10-12T21:01:48.377Z,21.05
2023-10-12T21:04:18.427Z,16.55
2023-10-12T21:06:45.534Z,18.65
2023-10-12T21:09:15.224Z,13.70
2023-10-12T21:11:46.364Z,19.00
2023-10-12T21:14:21.083Z,16.77
2023-10-12T21:16:50.234Z,13.88
2023-10-12T21:19:19.528Z,13.82
2023-10-12T21:21:50.474Z,14.05
2023-10-12T21:24:22.832Z,9.75
2023-10-12T21:26:50.963Z,11.30
2023-10-12T21:29:22.400Z,14.90
2023-10-12T21:31:51.123Z,11.07
2023-10-12T21:34:25.026Z,10.73
2023-10-12T21:36:52.522Z,13.82
2023-10-12T21:39:35.769Z,13.32
2023-10-12T21:42:03.469Z,14.05
2023-10-12T21:44:30.942Z,17.80
2023-10-12T21:47:03.021Z,18.80
2023-10-12T21:49:44.083Z,21.65
2023-10-12T21:52:10.879Z,17.48
2023-10-12T21:54:38.085Z,23.52
2023-10-12T21:57:09.517Z,17.77
2023-10-12T21:59:37.693Z,18.85
2023-10-12T22:04:35.374Z,18.90
2023-10-12T22:07:06.659Z,21.42
2023-10-12T22:09:35.796Z,20.70
2023-10-12T22:12:03.400Z,20.77
2023-10-12T22:14:47.660Z,24.27
2023-10-12T22:17:18.086Z,24.30
2023-10-12T22:19:45.687Z,22.65
2023-10-12T22:22:12.709Z,23.08
2023-10-12T22:24:39.504Z,16.75
2023-10-12T22:27:06.197Z,22.02
2023-10-12T22:29:33.025Z,22.45
2023-10-12T22:32:00.073Z,25.38
2023-10-12T22:34:27.767Z,24.13
2023-10-12T22:36:54.535Z,23.30
2023-10-12T22:39:30.532Z,24.08
2023-10-12T22:41:58.044Z,23.25
2023-10-12T22:44:24.928Z,22.52
2023-10-12T22:46:51.694Z,19.92
2023-10-12T22:49:19.406Z,19.83
2023-10-12T22:51:47.920Z,23.63
2023-10-12T22:54:17.196Z,18.45
2023-10-12T22:56:44.454Z,19.42
2023-10-12T22:59:11.525Z,25.23
2023-10-12T23:01:39.678Z,20.52
2023-10-12T23:04:06.672Z,26.52
2023-10-12T23:06:34.456Z,18.98
2023-10-12T23:09:03.301Z,19.52
2023-10-12T23:11:34.547Z,19.25
2023-10-12T23:14:01.817Z,19.38
2023-10-12T23:16:30.803Z,24.42
2023-10-12T23:18:57.789Z,20.90
2023-10-12T23:21:30.210Z,26.90
2023-10-12T23:23:58.464Z,23.10
2023-10-12T23:26:30.511Z,24.65
2023-10-12T23:28:58.019Z,23.67
2023-10-12T23:31:27.343Z,24.58
2023-10-12T23:33:56.222Z,21.48
2023-10-12T23:36:25.930Z,23.95
2023-10-12T23:39:01.669Z,21.90
2023-10-12T23:41:33.030Z,24.30
2023-10-12T23:44:02.399Z,21.67
2023-10-12T23:46:34.171Z,21.92
2023-10-12T23:49:21.036Z,22.25
2023-10-12T23:51:48.167Z,19.10
2023-10-12T23:54:26.217Z,17.75
2023-10-12T23:56:58.679Z,17.98
2023-10-12T23:59:28.464Z,17.42
